createdAt,value
2023-01-02T00:03:36.111Z,96.36
2023-01-02T00:08:41.350Z,95.34
2023-01-02T00:13:46.381Z,95.68
2023-01-02T00:18:54.401Z,95.64
2023-01-02T00:23:59.346Z,95.48
2023-01-02T00:29:05.280Z,94.66
2023-01-02T00:34:13.115Z,94.05
2023-01-02T00:39:18.161Z,93.88
2023-01-02T00:44:23.927Z,93.83
2023-01-02T00:49:33.284Z,93.78
2023-01-02T00:54:38.203Z,93.36
2023-01-02T00:59:43.101Z,92.65
2023-01-02T01:04:50.923Z,91.51
2023-01-02T01:09:55.758Z,90.74
2023-01-02T01:15:00.728Z,89.98
2023-01-02T01:20:09.746Z,89.59
2023-01-02T01:25:14.852Z,89.17
2023-01-02T01:30:19.796Z,88.93
2023-01-02T01:35:27.507Z,89.19
2023-01-02T01:40:39.618Z,89.36
2023-01-02T01:45:46.463Z,89.18
2023-01-02T01:50:53.977Z,89.43
2023-01-02T01:56:06.838Z,89.22
2023-01-02T02:01:13.927Z,89.28
2023-01-02T02:06:23.144Z,89.69
2023-01-02T02:11:28.428Z,89.77
2023-01-02T02:16:43.862Z,89.88
2023-01-02T02:22:17.696Z,89.62
2023-01-02T02:27:46.458Z,92.37
2023-01-02T02:33:18.286Z,93.48
2023-01-02T02:38:36.335Z,94.67
2023-01-02T02:43:49.869Z,94.70
2023-01-02T02:49:03.389Z,94.72
2023-01-02T02:54:14.010Z,94.95
2023-01-02T02:59:19.658Z,95.06
2023-01-02T03:04:29.104Z,95.40
2023-01-02T03:09:41.824Z,95.68
2023-01-02T03:14:54.927Z,95.58
2023-01-02T03:20:10.076Z,96.03
2023-01-02T03:25:18.143Z,95.70
2023-01-02T03:30:25.618Z,95.98
2023-01-02T03:35:39.346Z,95.39
2023-01-02T03:40:48.841Z,95.12
2023-01-02T03:46:04.457Z,95.06
2023-01-02T03:51:13.424Z,94.70
2023-01-02T03:56:26.183Z,94.21
2023-01-02T04:01:47.044Z,94.67
2023-01-02T04:07:02.739Z,95.88
2023-01-02T04:12:16.543Z,96.08
2023-01-02T04:17:25.162Z,96.12
2023-01-02T04:22:38.401Z,96.59
2023-01-02T04:27:49.359Z,96.62
2023-01-02T04:32:55.624Z,97.18
2023-01-02T04:38:10.442Z,97.29
2023-01-02T04:43:25.347Z,96.99
2023-01-02T04:48:31.642Z,97.10
2023-01-02T04:53:39.486Z,97.15
2023-01-02T04:58:45.007Z,97.14
2023-01-02T05:03:54.134Z,96.43
2023-01-02T05:09:02.001Z,95.39
2023-01-02T05:14:07.823Z,95.65
2023-01-02T05:19:13.021Z,96.27
2023-01-02T05:24:20.707Z,95.89
2023-01-02T05:29:26.444Z,96.03
2023-01-02T05:34:31.581Z,95.18
2023-01-02T05:39:39.158Z,94.73
2023-01-02T05:44:44.094Z,96.30
2023-01-02T05:49:50.299Z,96.60
2023-01-02T05:54:58.221Z,97.11
2023-01-02T06:00:04.432Z,97.47
2023-01-02T06:05:17.841Z,97.83
2023-01-02T06:10:25.446Z,97.77
2023-01-02T06:15:35.062Z,98.00
2023-01-02T06:20:40.802Z,98.09
2023-01-02T06:25:49.954Z,97.21
2023-01-02T06:30:56.152Z,96.59
2023-01-02T06:36:05.353Z,95.53
2023-01-02T06:41:17.432Z,95.86
2023-01-02T06:46:26.788Z,95.86
2023-01-02T06:51:34.678Z,96.35
2023-01-02T06:56:47.469Z,96.23
2023-01-02T07:02:01.629Z,96.39
2023-01-02T07:07:11.892Z,96.72
2023-01-02T07:12:21.958Z,96.41
2023-01-02T07:17:27.342Z,97.23
2023-01-02T07:22:32.304Z,97.07
2023-01-02T07:27:39.911Z,96.91
2023-01-02T07:32:45.620Z,97.10
2023-01-02T07:37:52.220Z,96.90
2023-01-02T07:43:00.007Z,97.04
2023-01-02T07:48:06.069Z,97.06
2023-01-02T07:53:11.210Z,96.77
2023-01-02T07:58:32.135Z,97.58
2023-01-02T08:03:39.382Z,97.62
2023-01-02T08:08:45.928Z,97.35
2023-01-02T08:13:54.587Z,97.56
2023-01-02T08:18:59.657Z,97.23
2023-01-02T08:24:10.602Z,97.25
2023-01-02T08:29:31.091Z,97.33
2023-01-02T08:34:38.431Z,97.27
2023-01-02T08:39:45.652Z,97.19
2023-01-02T08:44:55.029Z,96.80
2023-01-02T08:50:00.147Z,96.39
2023-01-02T08:55:06.137Z,96.23
2023-01-02T09:00:17.532Z,96.20
2023-01-02T09:05:25.031Z,95.65
2023-01-02T09:10:36.115Z,96.01
2023-01-02T09:15:47.366Z,95.85
2023-01-02T09:20:54.431Z,95.60
2023-01-02T09:26:03.166Z,95.17
2023-01-02T09:31:13.331Z,95.16
2023-01-02T09:36:22.537Z,95.36
2023-01-02T09:41:34.913Z,95.42
2023-01-02T09:46:55.648Z,94.70
2023-01-02T09:52:00.969Z,95.27
2023-01-02T09:57:20.086Z,95.35
2023-01-02T10:02:42.545Z,95.96
2023-01-02T10:07:55.969Z,95.91
2023-01-02T10:13:09.144Z,96.63
2023-01-02T10:18:23.111Z,96.52
2023-01-02T10:23:30.999Z,97.04
2023-01-02T10:28:47.536Z,96.57
2023-01-02T10:34:03.205Z,96.55
2023-01-02T10:39:16.426Z,96.28
2023-01-02T10:44:27.780Z,95.66
2023-01-02T10:49:37.937Z,95.39
2023-01-02T10:54:58.978Z,95.02
2023-01-02T11:00:06.166Z,96.44
2023-01-02T11:05:23.441Z,96.96
2023-01-02T11:10:31.103Z,97.04
2023-01-02T11:15:37.230Z,97.21
2023-01-02T11:20:52.376Z,97.12
2023-01-02T11:25:57.674Z,98.80
2023-01-02T11:31:14.844Z,99.94
2023-01-02T11:36:22.919Z,98.51
2023-01-02T11:41:52.135Z,96.77
2023-01-02T11:46:58.642Z,95.27
2023-01-02T11:52:08.904Z,95.28
2023-01-02T11:57:18.899Z,94.92
2023-01-02T12:02:30.066Z,94.94
2023-01-02T12:07:46.208Z,94.51
2023-01-02T12:13:03.380Z,93.59
2023-01-02T12:18:22.109Z,93.46
2023-01-02T12:23:39.804Z,93.29
2023-01-02T12:29:07.335Z,92.16
2023-01-02T12:34:25.492Z,91.92
2023-01-02T12:39:55.265Z,90.97
2023-01-02T12:45:03.008Z,89.97
2023-01-02T12:50:34.060Z,89.66
2023-01-02T12:55:52.789Z,89.85
2023-01-02T13:01:15.792Z,88.88
2023-01-02T13:06:44.496Z,89.84
2023-01-02T13:12:02.973Z,89.50
2023-01-02T13:17:27.662Z,89.33
2023-01-02T13:22:39.935Z,90.37
2023-01-02T13:27:50.164Z,89.43
2023-01-02T13:32:55.351Z,89.51
2023-01-02T13:38:05.407Z,90.62
2023-01-02T13:43:20.459Z,90.35
2023-01-02T13:48:35.103Z,90.50
2023-01-02T13:53:43.168Z,90.44
2023-01-02T13:58:55.334Z,90.07
2023-01-02T14:04:32.493Z,90.20
2023-01-02T14:10:13.616Z,90.16
2023-01-02T14:15:26.260Z,89.90
2023-01-02T14:20:35.740Z,88.63
2023-01-02T14:25:50.772Z,88.63
2023-01-02T14:31:03.241Z,88.94
2023-01-02T14:36:13.802Z,88.91
2023-01-02T14:42:06.692Z,89.09
2023-01-02T14:47:20.855Z,89.32
2023-01-02T14:52:30.798Z,89.48
2023-01-02T14:57:40.175Z,89.84
2023-01-02T15:02:50.981Z,90.43
2023-01-02T15:08:00.154Z,91.06
2023-01-02T15:13:08.126Z,91.68
2023-01-02T15:18:20.653Z,91.27
2023-01-02T15:23:28.307Z,90.71
2023-01-02T15:28:35.988Z,90.37
2023-01-02T15:33:43.628Z,90.47
2023-01-02T15:38:50.442Z,90.43
2023-01-02T15:44:11.172Z,90.29
2023-01-02T15:49:20.292Z,89.71
2023-01-02T15:54:27.546Z,88.90
2023-01-02T15:59:38.948Z,87.48
2023-01-02T16:04:46.567Z,81.52
2023-01-02T16:09:59.994Z,79.21
2023-01-02T16:15:14.794Z,78.30
2023-01-02T16:20:27.686Z,78.33
2023-01-02T16:25:34.183Z,78.09
2023-01-02T16:30:42.845Z,78.00
2023-01-02T16:36:00.211Z,77.13
2023-01-02T16:41:12.591Z,75.58
2023-01-02T16:46:19.072Z,75.48
2023-01-02T16:51:27.074Z,76.45
2023-01-02T16:56:33.046Z,76.04
2023-01-02T17:01:38.232Z,76.11
2023-01-02T17:06:46.347Z,76.76
2023-01-02T17:12:03.155Z,76.69
2023-01-02T17:17:09.645Z,77.08
2023-01-02T17:22:17.328Z,77.72
2023-01-02T17:27:22.854Z,78.12
2023-01-02T17:32:28.630Z,79.29
2023-01-02T17:37:37.541Z,78.49
2023-01-02T17:42:44.175Z,78.48
2023-01-02T17:48:02.215Z,78.16
2023-01-02T17:53:11.998Z,78.22
2023-01-02T17:58:19.057Z,78.55
2023-01-02T18:03:24.170Z,77.79
2023-01-02T18:08:34.650Z,78.92
2023-01-02T18:13:44.307Z,78.56
2023-01-02T18:18:49.648Z,78.07
2023-01-02T18:24:01.668Z,78.02
2023-01-02T18:29:10.114Z,77.62
2023-01-02T18:34:46.576Z,78.26
2023-01-02T18:39:48.942Z,77.90
2023-01-02T18:44:57.702Z,78.97
2023-01-02T18:50:35.073Z,79.01
2023-01-02T18:55:42.640Z,78.62
2023-01-02T19:00:48.793Z,79.42
2023-01-02T19:05:53.840Z,79.93
2023-01-02T19:11:22.290Z,80.72
2023-01-02T19:16:28.813Z,81.20
2023-01-02T19:21:38.067Z,81.77
2023-01-02T19:26:48.707Z,81.86
2023-01-02T19:32:00.016Z,82.26
2023-01-02T19:37:25.771Z,82.25
2023-01-02T19:42:35.748Z,82.29
2023-01-02T19:47:42.377Z,81.92
2023-01-02T19:52:47.983Z,82.01
2023-01-02T19:57:57.548Z,81.43
2023-01-02T20:03:03.187Z,81.50
2023-01-02T20:08:16.720Z,82.88
2023-01-02T20:13:26.999Z,83.63
2023-01-02T20:18:32.897Z,84.89
2023-01-02T20:23:39.931Z,96.40
2023-01-02T20:28:48.977Z,100.00
2023-01-02T20:33:56.443Z,100.00
2023-01-02T20:39:03.128Z,100.00
2023-01-02T20:44:15.877Z,100.00
2023-01-02T20:49:25.302Z,100.00
2023-01-02T20:54:31.259Z,100.00
2023-01-02T20:59:39.490Z,100.00
2023-01-02T21:04:45.123Z,100.00
2023-01-02T21:09:50.344Z,100.00
2023-01-02T21:14:58.409Z,100.00
2023-01-02T21:20:04.537Z,100.00
2023-01-02T21:25:10.299Z,100.00
2023-01-02T21:30:18.442Z,100.00
2023-01-02T21:35:24.929Z,100.00
2023-01-02T21:40:30.174Z,100.00
2023-01-02T21:45:40.349Z,100.00
2023-01-02T21:50:45.645Z,100.00
2023-01-02T21:55:50.751Z,100.00
2023-01-02T22:00:58.517Z,100.00
2023-01-02T22:06:03.454Z,100.00
2023-01-02T22:11:21.025Z,100.00
2023-01-02T22:16:28.612Z,100.00
2023-01-02T22:21:36.549Z,100.00
2023-01-02T22:26:42.886Z,100.00
2023-01-02T22:31:51.765Z,100.00
2023-01-02T22:36:57.322Z,100.00
2023-01-02T22:42:48.798Z,100.00
2023-01-02T22:47:46.560Z,100.00
2023-01-02T22:52:52.717Z,100.00
2023-01-02T22:57:58.077Z,100.00
2023-01-02T23:03:05.678Z,100.00
2023-01-02T23:08:11.091Z,100.00
2023-01-02T23:13:16.054Z,100.00
2023-01-02T23:18:35.873Z,100.00
2023-01-02T23:23:41.730Z,100.00
2023-01-02T23:34:16.814Z,100.00
2023-01-02T23:39:23.418Z,100.00
2023-01-02T23:44:29.002Z,100.00
2023-01-02T23:49:36.503Z,100.00
2023-01-02T23:54:41.992Z,100.00
2023-01-02T23:59:47.040Z,100.00
